Time;durP1;ratioP1;P1;durP2;ratioP2;P2;SDS_P1;SDS_P2;PMS_P1;PMS_P2;Temp;Humidity;BMP_temperature;BMP_pressure;BME280_temperature;BME280_humidity;BME280_pressure;Samples;Min_cycle;Max_cycle;Signal;HPM_P1;HPM_P2
2023/04/06 00:00:31;;;;;;;1.00;0.85;;;18.90;73.50;;;;;;5053165;28;20059;-68
2023/04/06 00:02:56;;;;;;;0.90;0.90;;;18.80;73.50;;;;;;5051686;28;20057;-68
2023/04/06 00:05:22;;;;;;;0.90;0.90;;;18.80;73.50;;;;;;5051815;28;20070;-68
2023/04/06 00:07:49;;;;;;;1.02;0.95;;;18.80;73.50;;;;;;5052974;28;20104;-68
2023/04/06 00:10:15;;;;;;;1.17;0.90;;;18.80;73.70;;;;;;5052994;28;20097;-68
2023/04/06 00:12:41;;;;;;;0.75;0.75;;;18.80;73.70;;;;;;5052737;28;20017;-68
2023/04/06 00:15:07;;;;;;;0.82;0.73;;;18.80;73.70;;;;;;5052925;28;20036;-68
2023/04/06 00:17:33;;;;;;;1.05;0.63;;;18.80;73.70;;;;;;5052961;28;20017;-68
2023/04/06 00:19:58;;;;;;;0.95;0.90;;;18.70;73.80;;;;;;5052840;28;20029;-68
2023/04/06 00:22:24;;;;;;;2.45;0.90;;;18.70;73.70;;;;;;5052743;28;20020;-68
2023/04/06 00:24:50;;;;;;;1.10;0.98;;;18.70;73.80;;;;;;5052914;28;20219;-68
2023/04/06 00:27:16;;;;;;;1.48;0.80;;;18.70;73.70;;;;;;5052364;28;20021;-68
2023/04/06 00:29:43;;;;;;;0.75;0.75;;;18.70;73.70;;;;;;5051563;28;20032;-68
2023/04/06 00:32:08;;;;;;;0.90;0.80;;;18.70;73.70;;;;;;5051322;28;20023;-68
2023/04/06 00:34:34;;;;;;;0.82;0.80;;;18.70;73.70;;;;;;5052697;28;20021;-68
2023/04/06 00:37:00;;;;;;;1.77;1.00;;;18.70;73.70;;;;;;5052647;28;20402;-68
2023/04/06 00:39:25;;;;;;;0.90;0.90;;;18.70;73.80;;;;;;5051617;28;20496;-68
2023/04/06 00:41:52;;;;;;;1.25;0.90;;;18.70;73.80;;;;;;5052361;28;20480;-68
2023/04/06 00:44:18;;;;;;;2.55;0.90;;;18.70;73.80;;;;;;5051114;28;20074;-68
2023/04/06 00:46:44;;;;;;;1.95;0.90;;;18.60;73.90;;;;;;5052563;28;20021;-68
2023/04/06 00:49:10;;;;;;;1.02;0.80;;;18.70;74.00;;;;;;5051296;28;20078;-68
2023/04/06 00:51:35;;;;;;;0.90;0.90;;;18.60;73.90;;;;;;5051375;28;20028;-68
2023/04/06 00:54:01;;;;;;;0.90;0.80;;;18.60;73.90;;;;;;5052448;28;20045;-68
2023/04/06 00:56:27;;;;;;;1.10;1.00;;;18.60;74.00;;;;;;5052234;28;20143;-68
2023/04/06 00:58:52;;;;;;;1.17;0.70;;;18.60;74.00;;;;;;5052466;28;20111;-68
2023/04/06 01:01:18;;;;;;;1.02;0.80;;;18.60;74.00;;;;;;5051038;28;20021;-68
2023/04/06 01:03:47;;;;;;;0.77;0.77;;;18.60;75.00;;;;;;5051252;28;20029;-68
2023/04/06 01:06:12;;;;;;;1.23;0.88;;;18.60;74.20;;;;;;5035166;28;20017;-68
2023/04/06 01:08:38;;;;;;;0.75;0.75;;;18.60;74.20;;;;;;5054690;28;20473;-68
2023/04/06 01:11:04;;;;;;;1.10;0.80;;;18.60;74.10;;;;;;5056026;28;20017;-68
2023/04/06 01:13:30;;;;;;;0.90;0.90;;;18.60;74.20;;;;;;5056214;28;20032;-68
2023/04/06 01:15:55;;;;;;;1.02;1.00;;;18.50;74.10;;;;;;5056223;28;20025;-68
2023/04/06 01:18:30;;;;;;;0.88;0.88;;;18.50;74.10;;;;;;5054791;28;20377;-68
2023/04/06 01:20:56;;;;;;;0.77;0.63;;;18.50;74.20;;;;;;5056067;28;20024;-68
2023/04/06 01:23:21;;;;;;;0.98;0.88;;;18.50;74.20;;;;;;5055989;28;20120;-68
2023/04/06 01:25:47;;;;;;;0.73;0.73;;;18.50;74.20;;;;;;5055777;28;20029;-68
2023/04/06 01:28:12;;;;;;;1.02;0.80;;;18.50;74.30;;;;;;5055754;28;20052;-68
2023/04/06 01:30:38;;;;;;;2.10;0.68;;;18.50;74.30;;;;;;5054573;28;20516;-68
2023/04/06 01:33:04;;;;;;;1.67;0.65;;;18.50;74.60;;;;;;5055768;28;20350;-68
2023/04/06 01:35:30;;;;;;;1.10;1.00;;;18.50;74.40;;;;;;5054671;28;20074;-68
2023/04/06 01:37:55;;;;;;;0.70;0.70;;;18.50;74.50;;;;;;5054420;28;20398;-68
2023/04/06 01:40:21;;;;;;;0.90;0.80;;;18.40;74.50;;;;;;5055368;28;20033;-68
2023/04/06 01:42:47;;;;;;;1.60;1.00;;;18.40;74.50;;;;;;5055679;28;20029;-68
2023/04/06 01:45:12;;;;;;;0.93;0.80;;;18.40;74.60;;;;;;5055452;28;20017;-68
2023/04/06 01:47:38;;;;;;;0.70;0.70;;;18.40;74.60;;;;;;5055605;28;20033;-68
2023/04/06 01:50:06;;;;;;;1.67;0.70;;;18.40;74.60;;;;;;5055417;28;20024;-68
2023/04/06 01:52:32;;;;;;;0.73;0.73;;;18.40;74.70;;;;;;5055391;28;20056;-68
2023/04/06 01:54:58;;;;;;;0.95;0.60;;;18.40;74.70;;;;;;5055153;28;20020;-68
2023/04/06 01:57:25;;;;;;;1.48;0.88;;;18.40;74.70;;;;;;5055344;28;20382;-68
2023/04/06 01:59:51;;;;;;;3.30;0.85;;;18.40;74.80;;;;;;5055096;28;20025;-68
2023/04/06 02:02:16;;;;;;;0.93;0.80;;;18.40;74.70;;;;;;5055421;28;20039;-68
2023/04/06 02:04:42;;;;;;;1.40;1.00;;;18.40;74.80;;;;;;5053853;28;20485;-68
2023/04/06 02:07:08;;;;;;;0.70;0.70;;;18.30;75.00;;;;;;5054969;28;20366;-68
2023/04/06 02:09:33;;;;;;;0.93;0.70;;;18.30;74.90;;;;;;5054892;28;20493;-68
2023/04/06 02:12:00;;;;;;;0.70;0.60;;;18.30;74.90;;;;;;5055133;28;20508;-68
2023/04/06 02:14:26;;;;;;;1.00;0.65;;;18.30;75.10;;;;;;5054922;28;20013;-68
2023/04/06 02:16:51;;;;;;;1.55;0.65;;;18.30;75.00;;;;;;5053862;28;20043;-68
2023/04/06 02:19:17;;;;;;;1.98;0.90;;;18.30;75.10;;;;;;5054635;28;20032;-68
2023/04/06 02:21:43;;;;;;;0.80;0.63;;;18.30;75.10;;;;;;5055000;28;20048;-68
2023/04/06 02:24:08;;;;;;;0.93;0.80;;;18.30;75.10;;;;;;5054446;28;20033;-67
2023/04/06 02:26:34;;;;;;;1.83;0.75;;;18.30;75.00;;;;;;5053553;28;20037;-68
2023/04/06 02:29:01;;;;;;;0.60;0.60;;;18.30;75.00;;;;;;5055076;28;20013;-68
2023/04/06 02:31:26;;;;;;;0.55;0.55;;;18.30;75.00;;;;;;5054741;28;20101;-68
2023/04/06 02:33:52;;;;;;;0.80;0.80;;;18.30;75.00;;;;;;5054819;28;20108;-68
2023/04/06 02:36:17;;;;;;;1.45;0.80;;;18.30;75.00;;;;;;5054490;28;20101;-68
2023/04/06 02:38:43;;;;;;;1.95;0.77;;;18.30;75.00;;;;;;5054334;28;20096;-68
2023/04/06 02:41:09;;;;;;;0.90;0.80;;;18.30;75.00;;;;;;5054579;28;20526;-68
2023/04/06 02:43:34;;;;;;;1.40;0.73;;;18.30;74.90;;;;;;5054546;28;20021;-68
2023/04/06 02:46:00;;;;;;;0.90;0.90;;;18.20;74.90;;;;;;5054368;28;20028;-68
2023/04/06 02:48:26;;;;;;;2.95;0.75;;;18.30;75.00;;;;;;5054156;28;20029;-68
2023/04/06 02:50:51;;;;;;;0.73;0.70;;;18.30;75.00;;;;;;5053068;28;20029;-68
2023/04/06 02:53:17;;;;;;;1.40;0.75;;;18.20;74.90;;;;;;5053869;28;20053;-68
2023/04/06 02:55:43;;;;;;;0.70;0.70;;;18.20;75.90;;;;;;5054340;28;20025;-68
2023/04/06 02:58:08;;;;;;;1.23;0.80;;;18.20;74.90;;;;;;5053982;28;20029;-68
2023/04/06 03:00:34;;;;;;;0.60;0.60;;;18.20;74.90;;;;;;5054121;28;20036;-68
2023/04/06 03:03:00;;;;;;;0.93;0.90;;;18.20;75.00;;;;;;5054323;28;20028;-68
2023/04/06 03:05:26;;;;;;;3.63;0.85;;;18.20;75.20;;;;;;5053757;28;20138;-68
2023/04/06 03:07:51;;;;;;;1.02;0.90;;;18.20;75.20;;;;;;5052401;28;20427;-68
2023/04/06 03:10:17;;;;;;;0.68;0.63;;;18.20;75.30;;;;;;5053860;28;20421;-68
2023/04/06 03:12:42;;;;;;;0.75;0.70;;;18.20;75.30;;;;;;5053885;28;20495;-68
2023/04/06 03:15:09;;;;;;;0.77;0.75;;;18.20;75.30;;;;;;5052450;28;20473;-68
2023/04/06 03:17:35;;;;;;;0.50;0.50;;;18.20;75.40;;;;;;5053868;28;20027;-68
2023/04/06 03:20:00;;;;;;;2.88;0.70;;;18.20;75.30;;;;;;5053045;28;20037;-68
2023/04/06 03:22:26;;;;;;;0.45;0.45;;;18.20;75.40;;;;;;5053345;28;20033;-68
2023/04/06 03:24:51;;;;;;;0.88;0.80;;;18.20;75.30;;;;;;5053586;28;20390;-68
2023/04/06 03:27:17;;;;;;;0.80;0.80;;;18.20;75.40;;;;;;5053513;28;20025;-68
2023/04/06 03:29:43;;;;;;;0.63;0.63;;;18.20;75.40;;;;;;5053457;28;20029;-68
2023/04/06 03:32:10;;;;;;;1.58;0.73;;;18.20;75.40;;;;;;5053075;28;20021;-68
2023/04/06 03:34:35;;;;;;;1.38;1.00;;;18.10;75.40;;;;;;5053607;28;20017;-68
2023/04/06 03:37:01;;;;;;;0.60;0.60;;;18.10;75.50;;;;;;5053106;28;20094;-68
2023/04/06 03:39:26;;;;;;;1.00;0.70;;;18.20;75.50;;;;;;5052081;28;20542;-68
2023/04/06 03:41:52;;;;;;;0.88;0.85;;;18.10;75.50;;;;;;5053503;28;20051;-68
2023/04/06 03:44:18;;;;;;;0.70;0.70;;;18.10;75.40;;;;;;5053261;28;20108;-68
2023/04/06 03:46:44;;;;;;;0.88;0.77;;;18.10;75.60;;;;;;5053236;28;20025;-68
2023/04/06 03:49:09;;;;;;;0.63;0.63;;;18.10;75.50;;;;;;5053288;28;20068;-68
2023/04/06 03:51:35;;;;;;;0.80;0.68;;;18.10;75.60;;;;;;5053352;28;20033;-68
2023/04/06 03:54:00;;;;;;;1.05;0.80;;;18.10;75.60;;;;;;5052036;28;20061;-68
2023/04/06 03:56:26;;;;;;;2.00;0.65;;;18.10;75.60;;;;;;5053120;28;20078;-68
2023/04/06 03:58:52;;;;;;;4.18;0.90;;;18.10;75.70;;;;;;5051763;28;20086;-68
2023/04/06 04:01:18;;;;;;;0.90;0.68;;;18.10;75.70;;;;;;5052875;28;20075;-68
2023/04/06 04:03:43;;;;;;;0.82;0.80;;;18.10;75.70;;;;;;5053176;28;20029;-68
2023/04/06 04:06:09;;;;;;;0.80;0.80;;;18.10;75.70;;;;;;5050841;28;20106;-68
2023/04/06 04:08:35;;;;;;;1.42;0.80;;;18.10;75.70;;;;;;5032941;28;20401;-68
2023/04/06 04:11:01;;;;;;;0.90;0.70;;;18.10;75.80;;;;;;5033078;28;20049;-68
2023/04/06 04:13:27;;;;;;;0.75;0.75;;;18.00;75.80;;;;;;5047870;28;20140;-68
2023/04/06 04:15:52;;;;;;;1.15;0.68;;;18.00;75.90;;;;;;5032778;28;20041;-68
2023/04/06 04:18:18;;;;;;;1.90;0.55;;;18.00;75.90;;;;;;5032769;28;20028;-68
2023/04/06 04:20:44;;;;;;;1.02;0.80;;;18.00;75.90;;;;;;5064724;28;20029;-68
2023/04/06 04:23:10;;;;;;;1.58;0.85;;;18.00;75.80;;;;;;5032773;28;20030;-68
2023/04/06 04:25:36;;;;;;;1.15;0.70;;;18.00;75.90;;;;;;5065045;28;20034;-68
2023/04/06 04:28:02;;;;;;;1.13;0.80;;;18.00;75.90;;;;;;5064665;28;20032;-68
2023/04/06 04:30:27;;;;;;;1.10;0.80;;;18.00;75.90;;;;;;5032776;28;20048;-68
2023/04/06 04:32:53;;;;;;;1.75;0.77;;;18.00;75.90;;;;;;5032791;28;20473;-68
2023/04/06 04:35:18;;;;;;;1.60;0.82;;;18.00;75.90;;;;;;5032793;28;20393;-68
2023/04/06 04:37:44;;;;;;;0.50;0.50;;;18.00;75.90;;;;;;5032717;28;20496;-67
2023/04/06 04:40:10;;;;;;;1.23;0.70;;;18.00;75.90;;;;;;5032579;28;20032;-68
2023/04/06 04:42:36;;;;;;;1.20;0.70;;;18.00;75.90;;;;;;5033499;28;20358;-68
2023/04/06 04:45:01;;;;;;;2.40;0.70;;;18.00;75.90;;;;;;5036877;28;20052;-68
2023/04/06 04:47:27;;;;;;;0.50;0.50;;;18.00;76.00;;;;;;5036371;28;20532;-68
2023/04/06 04:49:53;;;;;;;0.65;0.60;;;17.90;75.90;;;;;;5036935;28;20481;-68
2023/04/06 04:52:18;;;;;;;0.60;0.60;;;18.00;76.00;;;;;;5036487;28;20140;-68
2023/04/06 04:54:44;;;;;;;1.17;0.75;;;18.00;76.00;;;;;;5036710;28;20025;-68
2023/04/06 04:57:10;;;;;;;1.17;0.70;;;18.00;76.10;;;;;;5068480;28;20022;-68
2023/04/06 04:59:35;;;;;;;1.17;0.63;;;18.00;76.10;;;;;;5082107;28;20473;-68
2023/04/06 05:02:01;;;;;;;0.60;0.60;;;17.90;76.00;;;;;;5055560;28;20017;-68
2023/04/06 05:04:27;;;;;;;0.70;0.70;;;18.00;76.10;;;;;;5055681;28;20303;-68
2023/04/06 05:07:06;;;;;;;1.20;0.70;;;17.90;76.00;;;;;;5055700;28;20021;-68
2023/04/06 05:09:31;;;;;;;0.75;0.60;;;17.90;76.00;;;;;;5038004;28;20052;-68
2023/04/06 05:11:58;;;;;;;0.82;0.70;;;17.90;76.10;;;;;;5037749;28;20385;-68
2023/04/06 05:14:24;;;;;;;0.93;0.50;;;17.90;76.00;;;;;;5054413;28;20021;-68
2023/04/06 05:16:50;;;;;;;1.13;0.63;;;18.00;76.10;;;;;;5054237;28;20082;-68
2023/04/06 05:19:15;;;;;;;1.35;0.80;;;17.90;76.20;;;;;;5054424;28;20138;-68
2023/04/06 05:21:41;;;;;;;0.90;0.65;;;17.90;76.10;;;;;;5055448;28;20056;-68
2023/04/06 05:24:07;;;;;;;2.10;0.68;;;17.90;76.20;;;;;;5054191;28;20057;-68
2023/04/06 05:26:33;;;;;;;4.85;0.95;;;17.90;76.20;;;;;;5055366;28;20025;-68
2023/04/06 05:28:58;;;;;;;0.73;0.63;;;17.90;76.20;;;;;;5055462;28;20591;-68
2023/04/06 05:31:24;;;;;;;4.22;0.70;;;17.90;76.20;;;;;;5055035;28;20096;-68
2023/04/06 05:33:50;;;;;;;2.42;0.68;;;17.90;76.30;;;;;;5055341;28;20095;-68
2023/04/06 05:36:15;;;;;;;1.85;1.10;;;17.90;76.20;;;;;;5037478;28;20017;-68
2023/04/06 05:38:41;;;;;;;0.50;0.50;;;17.90;76.20;;;;;;5037314;28;20029;-68
2023/04/06 05:41:07;;;;;;;0.63;0.63;;;17.90;76.20;;;;;;5055266;28;20165;-68
2023/04/06 05:43:32;;;;;;;1.17;0.60;;;17.90;76.20;;;;;;5054934;28;20615;-68
2023/04/06 05:45:58;;;;;;;1.15;0.65;;;17.90;76.30;;;;;;5054932;28;20485;-68
2023/04/06 05:48:24;;;;;;;1.65;0.55;;;17.90;76.20;;;;;;5054919;28;20047;-68
2023/04/06 05:50:50;;;;;;;1.00;0.57;;;17.80;76.20;;;;;;5054965;28;20032;-68
2023/04/06 05:53:16;;;;;;;0.40;0.40;;;17.80;76.20;;;;;;5053009;28;20045;-68
2023/04/06 05:55:42;;;;;;;2.22;0.52;;;17.90;76.30;;;;;;5053738;28;20166;-68
2023/04/06 05:58:07;;;;;;;1.58;0.70;;;17.90;76.40;;;;;;5053585;28;20492;-68
2023/04/06 06:00:34;;;;;;;0.63;0.63;;;17.90;76.50;;;;;;5054456;28;20096;-68
2023/04/06 06:02:59;;;;;;;1.13;0.55;;;17.90;76.50;;;;;;5054632;28;20094;-68
2023/04/06 06:05:25;;;;;;;0.70;0.63;;;17.80;76.40;;;;;;5054732;28;20378;-68
2023/04/06 06:07:51;;;;;;;1.65;0.57;;;17.90;76.40;;;;;;5039722;28;20531;-68
2023/04/06 06:10:17;;;;;;;1.02;0.88;;;17.80;76.40;;;;;;5067121;28;20398;-68
2023/04/06 06:12:42;;;;;;;2.55;0.60;;;17.80;76.50;;;;;;5034550;28;20025;-68
2023/04/06 06:15:08;;;;;;;0.68;0.60;;;17.90;76.50;;;;;;5034519;28;20022;-68
2023/04/06 06:17:34;;;;;;;0.95;0.47;;;17.80;75.90;;;;;;5034713;28;20040;-67
2023/04/06 06:20:00;;;;;;;0.88;0.45;;;17.90;75.80;;;;;;5034572;28;20029;-67
2023/04/06 06:22:25;;;;;;;0.70;0.50;;;17.90;75.20;;;;;;5034401;28;20032;-67
2023/04/06 06:24:51;;;;;;;0.65;0.40;;;17.80;74.70;;;;;;5034389;28;20064;-67
2023/04/06 06:27:17;;;;;;;1.35;0.43;;;17.90;74.50;;;;;;5034224;28;20041;-67
2023/04/06 06:29:42;;;;;;;0.60;0.38;;;17.80;74.10;;;;;;5034085;28;20072;-67
2023/04/06 06:32:08;;;;;;;0.35;0.32;;;17.90;74.00;;;;;;5034279;28;20080;-67
2023/04/06 06:34:35;;;;;;;1.40;0.80;;;17.90;73.80;;;;;;5034148;28;20025;-67
2023/04/06 06:37:01;;;;;;;1.50;0.40;;;17.90;73.80;;;;;;5065915;28;20481;-67
2023/04/06 06:39:27;;;;;;;1.10;0.60;;;17.90;73.70;;;;;;5051227;28;20024;-67
2023/04/06 06:41:55;;;;;;;8.05;1.25;;;17.90;73.60;;;;;;5053955;28;20052;-67
2023/04/06 06:44:21;;;;;;;14.35;1.67;;;17.90;73.90;;;;;;5051954;28;20021;-68
2023/04/06 06:46:47;;;;;;;10.07;1.38;;;17.90;74.50;;;;;;5050514;28;20071;-67
2023/04/06 06:49:14;;;;;;;6.60;1.33;;;17.90;74.90;;;;;;5051164;28;20025;-67
2023/04/06 06:51:39;;;;;;;6.10;1.10;;;17.90;75.10;;;;;;5051028;28;20013;-68
2023/04/06 06:54:05;;;;;;;7.03;1.30;;;18.00;75.40;;;;;;5049733;28;20041;-68
2023/04/06 06:56:31;;;;;;;6.38;1.20;;;17.90;75.30;;;;;;5048398;28;20504;-68
2023/04/06 06:58:57;;;;;;;4.13;1.08;;;18.00;75.50;;;;;;5050780;28;20563;-68
2023/04/06 07:01:22;;;;;;;4.72;1.27;;;18.00;75.30;;;;;;5052435;28;20106;-68
2023/04/06 07:03:48;;;;;;;4.43;1.00;;;18.00;75.30;;;;;;5052566;28;20025;-68
2023/04/06 07:06:13;;;;;;;4.07;1.05;;;18.00;75.30;;;;;;5052435;28;20021;-68
2023/04/06 07:08:39;;;;;;;5.28;0.98;;;18.00;75.20;;;;;;5053298;28;20092;-68
2023/04/06 07:11:05;;;;;;;2.15;1.13;;;18.10;75.20;;;;;;5052137;28;20370;-68
2023/04/06 07:13:31;;;;;;;2.70;1.00;;;18.00;75.00;;;;;;5053084;28;20029;-68
2023/04/06 07:15:56;;;;;;;2.90;1.02;;;18.00;75.00;;;;;;5053428;28;20453;-68
2023/04/06 07:18:22;;;;;;;5.78;1.40;;;18.10;75.00;;;;;;5053362;28;20021;-68
2023/04/06 07:20:48;;;;;;;1.42;0.70;;;18.00;74.80;;;;;;5052051;28;20033;-68
2023/04/06 07:23:13;;;;;;;4.00;1.30;;;18.10;74.80;;;;;;5053152;28;20100;-67
2023/04/06 07:25:39;;;;;;;1.60;0.77;;;18.10;74.70;;;;;;5053051;28;20032;-68
2023/04/06 07:28:04;;;;;;;1.77;0.77;;;18.10;74.70;;;;;;5052828;28;20451;-67
2023/04/06 07:30:30;;;;;;;2.03;0.80;;;18.10;74.60;;;;;;5052187;28;20408;-68
2023/04/06 07:32:56;;;;;;;2.15;0.70;;;18.10;74.60;;;;;;5065152;28;20026;-68
2023/04/06 07:35:23;;;;;;;3.97;1.00;;;18.10;74.50;;;;;;5065014;28;20025;-68
2023/04/06 07:37:49;;;;;;;3.33;0.90;;;18.10;74.50;;;;;;5064766;28;20025;-68
2023/04/06 07:40:15;;;;;;;3.08;0.77;;;18.10;74.40;;;;;;5064928;28;20021;-67
2023/04/06 07:42:41;;;;;;;4.38;0.80;;;18.10;74.30;;;;;;5032611;28;20402;-68
2023/04/06 07:45:07;;;;;;;3.90;0.98;;;18.10;74.30;;;;;;5032936;28;20034;-67
2023/04/06 07:47:33;;;;;;;2.30;0.82;;;18.20;74.30;;;;;;5032714;28;20055;-68
2023/04/06 07:49:58;;;;;;;3.28;0.93;;;18.20;74.20;;;;;;5032722;28;20107;-68
2023/04/06 07:52:24;;;;;;;1.70;0.90;;;18.20;74.20;;;;;;5032552;28;20037;-67
2023/04/06 07:54:50;;;;;;;2.08;0.88;;;18.20;74.10;;;;;;5065016;28;20025;-67
2023/04/06 07:57:15;;;;;;;3.03;0.73;;;18.20;74.00;;;;;;5036050;28;20028;-68
2023/04/06 07:59:41;;;;;;;3.35;0.93;;;18.20;74.00;;;;;;5052406;28;20031;-67
2023/04/06 08:02:07;;;;;;;2.13;0.65;;;18.20;74.00;;;;;;5052687;28;20563;-67
2023/04/06 08:04:32;;;;;;;1.85;0.65;;;18.20;73.90;;;;;;5084597;28;20031;-68
2023/04/06 08:06:58;;;;;;;3.60;1.00;;;18.20;73.80;;;;;;5064588;28;20025;-68
2023/04/06 08:09:24;;;;;;;0.88;0.40;;;18.20;73.80;;;;;;5032566;28;20075;-67
2023/04/06 08:11:50;;;;;;;1.30;0.60;;;18.20;73.70;;;;;;5032156;28;20485;-67
2023/04/06 08:14:16;;;;;;;2.00;0.73;;;18.30;73.80;;;;;;5032502;28;20022;-68
2023/04/06 08:16:41;;;;;;;2.40;0.65;;;18.20;73.70;;;;;;5032142;28;20032;-68
2023/04/06 08:19:09;;;;;;;1.33;0.63;;;18.20;73.60;;;;;;5032454;28;20056;-67
2023/04/06 08:21:35;;;;;;;3.17;0.57;;;18.30;73.60;;;;;;5032459;28;20029;-68
2023/04/06 08:24:01;;;;;;;1.05;0.57;;;18.30;73.60;;;;;;5032155;28;20030;-67
2023/04/06 08:26:27;;;;;;;1.63;0.65;;;18.30;73.50;;;;;;5032064;28;20382;-68
2023/04/06 08:28:53;;;;;;;2.58;0.80;;;18.30;73.50;;;;;;5064159;28;20032;-68
2023/04/06 08:31:19;;;;;;;2.92;0.88;;;18.30;73.40;;;;;;5064072;28;20385;-67
2023/04/06 08:33:45;;;;;;;2.13;0.77;;;18.30;73.40;;;;;;5032126;28;20033;-68
2023/04/06 08:36:14;;;;;;;1.08;0.80;;;18.30;73.40;;;;;;5064398;28;20017;-67
2023/04/06 08:38:40;;;;;;;3.33;0.93;;;18.30;73.40;;;;;;5032007;28;20033;-67
2023/04/06 08:41:12;;;;;;;2.60;0.80;;;18.30;73.40;;;;;;5031831;28;20022;-67
2023/04/06 08:43:47;;;;;;;0.75;0.60;;;18.30;73.30;;;;;;5064221;28;20113;-67
2023/04/06 08:46:13;;;;;;;2.78;0.80;;;18.30;73.20;;;;;;5047569;28;20029;-68
2023/04/06 08:48:40;;;;;;;2.95;0.63;;;18.40;73.30;;;;;;5063992;28;20079;-67
2023/04/06 08:51:05;;;;;;;1.70;0.60;;;18.30;73.20;;;;;;5063657;28;20032;-67
2023/04/06 08:53:31;;;;;;;1.33;0.68;;;18.40;73.20;;;;;;5063894;28;20046;-67
2023/04/06 08:55:57;;;;;;;4.03;1.02;;;18.30;73.10;;;;;;5031709;28;20064;-67
2023/04/06 08:58:23;;;;;;;1.08;0.60;;;18.40;74.20;;;;;;5060185;28;20476;-67
2023/04/06 09:00:49;;;;;;;1.77;0.68;;;18.30;73.10;;;;;;5050740;28;20101;-67
2023/04/06 09:03:14;;;;;;;1.23;0.50;;;18.30;73.00;;;;;;5050639;28;20029;-67
2023/04/06 09:05:40;;;;;;;1.52;0.52;;;18.40;73.00;;;;;;5050489;28;20074;-68
2023/04/06 09:08:06;;;;;;;0.88;0.52;;;18.40;73.00;;;;;;5051827;28;20033;-68
2023/04/06 09:10:32;;;;;;;1.00;0.50;;;18.40;73.00;;;;;;5050459;28;20096;-68
2023/04/06 09:13:08;;;;;;;1.25;0.50;;;18.40;72.90;;;;;;5050491;28;20029;-68
2023/04/06 09:15:33;;;;;;;2.10;0.63;;;18.40;72.90;;;;;;5051816;28;20523;-67
2023/04/06 09:17:59;;;;;;;1.95;0.73;;;18.40;72.90;;;;;;5051562;28;20024;-67
2023/04/06 09:20:26;;;;;;;3.03;0.70;;;18.40;72.80;;;;;;5050613;28;20021;-67
2023/04/06 09:22:51;;;;;;;0.85;0.50;;;18.40;72.90;;;;;;5050419;28;20021;-67
2023/04/06 09:25:26;;;;;;;1.00;0.60;;;18.40;72.80;;;;;;5050433;28;20104;-67
2023/04/06 09:28:02;;;;;;;1.92;0.70;;;18.40;72.80;;;;;;5050320;28;20033;-67
2023/04/06 09:30:27;;;;;;;1.85;0.70;;;18.40;72.70;;;;;;5053794;28;20093;-67
2023/04/06 09:32:55;;;;;;;2.50;0.70;;;18.40;72.70;;;;;;5055343;28;20564;-67
2023/04/06 09:35:20;;;;;;;1.23;0.50;;;18.40;72.70;;;;;;5054098;28;20113;-67
2023/04/06 09:37:47;;;;;;;0.93;0.50;;;18.40;72.70;;;;;;5053848;28;20151;-67
2023/04/06 09:40:13;;;;;;;1.08;0.50;;;18.50;72.70;;;;;;5054018;28;20397;-68
2023/04/06 09:42:41;;;;;;;1.48;0.60;;;18.50;72.70;;;;;;5053776;28;20107;-68
2023/04/06 09:45:07;;;;;;;0.82;0.47;;;18.50;72.60;;;;;;5055088;28;20074;-67
2023/04/06 09:47:33;;;;;;;1.65;0.65;;;18.50;72.60;;;;;;5054052;28;20033;-67
2023/04/06 09:49:59;;;;;;;1.08;0.52;;;18.50;72.60;;;;;;5053545;28;20028;-68
2023/04/06 09:52:33;;;;;;;1.00;0.60;;;18.50;72.60;;;;;;5053534;28;20060;-68
2023/04/06 09:55:03;;;;;;;1.35;0.52;;;18.50;72.60;;;;;;5054808;28;20025;-67
2023/04/06 09:57:35;;;;;;;1.95;0.60;;;18.50;72.60;;;;;;5053745;28;20113;-68
2023/04/06 10:00:09;;;;;;;1.70;0.70;;;18.50;72.50;;;;;;5053482;28;20021;-67
2023/04/06 10:02:53;;;;;;;1.00;0.40;;;18.50;72.50;;;;;;5054800;28;20032;-67
2023/04/06 10:05:37;;;;;;;0.98;0.40;;;18.50;72.50;;;;;;5048798;28;20018;-67
2023/04/06 10:08:11;;;;;;;2.35;0.60;;;18.50;72.50;;;;;;5034455;28;20029;-68
2023/04/06 10:10:37;;;;;;;1.33;0.57;;;18.50;72.40;;;;;;5066821;28;20048;-67
2023/04/06 10:13:03;;;;;;;1.90;0.60;;;18.50;72.40;;;;;;5034616;28;20505;-67
2023/04/06 10:15:29;;;;;;;0.95;0.47;;;18.50;72.30;;;;;;5066726;28;20107;-67
2023/04/06 10:17:56;;;;;;;2.53;0.60;;;18.50;72.30;;;;;;5034240;28;20109;-68
2023/04/06 10:20:32;;;;;;;1.25;0.82;;;18.50;72.30;;;;;;5049979;28;20079;-67
2023/04/06 10:23:10;;;;;;;1.40;0.70;;;18.50;72.30;;;;;;5065561;28;20052;-68
2023/04/06 10:25:36;;;;;;;0.82;0.57;;;18.50;72.30;;;;;;5034606;28;20033;-67
2023/04/06 10:28:05;;;;;;;0.90;0.50;;;18.50;72.20;;;;;;5066087;28;20029;-67
2023/04/06 10:30:31;;;;;;;0.50;0.43;;;18.50;72.20;;;;;;5066031;28;20021;-67
2023/04/06 10:32:56;;;;;;;1.02;0.57;;;18.50;72.20;;;;;;5034446;28;20029;-68
2023/04/06 10:35:23;;;;;;;2.20;0.77;;;18.50;72.20;;;;;;5034270;28;20018;-67
2023/04/06 10:38:01;;;;;;;2.17;0.57;;;18.50;72.20;;;;;;5049360;28;20029;-67
2023/04/06 10:40:27;;;;;;;1.73;0.60;;;18.50;72.10;;;;;;5032845;28;20393;-68
2023/04/06 10:43:06;;;;;;;1.25;0.52;;;18.50;72.10;;;;;;5066094;28;20034;-67
2023/04/06 10:45:31;;;;;;;1.58;0.75;;;18.50;72.10;;;;;;5066234;28;20056;-67
2023/04/06 10:47:57;;;;;;;2.33;0.50;;;18.50;72.10;;;;;;5065940;28;20053;-67
2023/04/06 10:50:23;;;;;;;1.70;0.40;;;18.50;72.00;;;;;;5065765;28;20504;-68
2023/04/06 10:53:09;;;;;;;1.50;0.65;;;18.60;72.10;;;;;;5033711;28;20422;-68
2023/04/06 10:55:35;;;;;;;2.75;0.80;;;18.60;72.00;;;;;;5016117;28;20470;-67
2023/04/06 10:58:00;;;;;;;2.70;0.52;;;18.60;72.00;;;;;;5058799;28;20061;-67
2023/04/06 11:00:26;;;;;;;2.03;0.50;;;18.60;72.00;;;;;;5053809;28;20078;-67
2023/04/06 11:02:59;;;;;;;1.10;0.43;;;18.60;72.00;;;;;;5053346;28;20049;-68
2023/04/06 11:05:25;;;;;;;;;;;18.60;72.00;;;;;;5052526;28;20043;-67
2023/04/06 11:07:50;;;;;;;2.95;0.70;;;18.60;71.90;;;;;;5053510;28;20376;-67
2023/04/06 11:10:22;;;;;;;2.33;0.50;;;18.60;72.00;;;;;;5053610;28;20025;-67
2023/04/06 11:12:53;;;;;;;1.75;0.50;;;18.60;72.00;;;;;;5053591;28;20025;-68
2023/04/06 11:15:19;;;;;;;1.00;0.50;;;18.60;71.90;;;;;;5052252;28;20098;-67
2023/04/06 11:17:45;;;;;;;1.48;0.77;;;18.60;71.90;;;;;;5053369;28;20048;-67
2023/04/06 11:20:11;;;;;;;1.83;0.60;;;18.60;71.90;;;;;;5053294;28;20033;-68
2023/04/06 11:22:47;;;;;;;1.35;0.63;;;18.60;71.80;;;;;;5052195;28;20025;-68
2023/04/06 11:25:13;;;;;;;1.77;0.75;;;18.60;71.80;;;;;;5051901;28;20021;-68
2023/04/06 11:27:39;;;;;;;1.23;0.70;;;18.60;71.80;;;;;;5053298;28;20071;-67
2023/04/06 11:30:05;;;;;;;1.67;0.57;;;18.60;71.80;;;;;;5051840;28;20130;-67
2023/04/06 11:32:40;;;;;;;2.75;0.70;;;18.60;71.70;;;;;;5051890;28;20485;-68
2023/04/06 11:35:06;;;;;;;2.30;0.70;;;18.60;71.70;;;;;;5051475;28;20485;-67
2023/04/06 11:37:32;;;;;;;1.55;0.52;;;18.70;71.70;;;;;;5053080;28;20025;-68
2023/04/06 11:39:58;;;;;;;2.63;1.00;;;18.70;71.70;;;;;;5052835;28;20039;-67
2023/04/06 11:42:29;;;;;;;3.40;1.05;;;18.70;71.60;;;;;;5051656;28;20024;-67
2023/04/06 11:44:55;;;;;;;2.45;0.60;;;18.60;71.60;;;;;;5051711;28;20025;-68
2023/04/06 11:47:32;;;;;;;2.55;0.70;;;18.60;71.60;;;;;;5051270;28;20535;-68
2023/04/06 11:50:06;;;;;;;2.10;0.60;;;18.60;71.60;;;;;;5051306;28;20100;-67
2023/04/06 11:52:31;;;;;;;1.70;0.60;;;18.70;71.70;;;;;;5051006;28;20044;-68
2023/04/06 11:54:57;;;;;;;2.42;0.70;;;18.70;71.60;;;;;;5052785;28;20017;-68
2023/04/06 11:57:25;;;;;;;1.13;0.70;;;18.70;71.60;;;;;;5051238;28;20021;-67
2023/04/06 11:59:52;;;;;;;1.60;0.60;;;18.70;71.60;;;;;;5051319;28;20049;-67
2023/04/06 12:02:18;;;;;;;1.95;0.70;;;18.60;71.50;;;;;;5052532;28;20027;-67
2023/04/06 12:04:44;;;;;;;1.58;0.60;;;18.70;71.50;;;;;;5049844;28;20508;-67
2023/04/06 12:07:09;;;;;;;4.32;0.88;;;18.70;71.50;;;;;;5032363;28;20033;-67
2023/04/06 12:09:36;;;;;;;1.75;0.52;;;18.70;71.50;;;;;;5032606;28;20021;-67
2023/04/06 12:12:02;;;;;;;1.50;0.60;;;18.70;71.50;;;;;;5032423;28;20021;-68
2023/04/06 12:14:28;;;;;;;1.45;0.40;;;18.70;71.50;;;;;;5032306;28;20025;-68
2023/04/06 12:16:53;;;;;;;2.40;0.63;;;18.70;71.50;;;;;;5032624;28;20034;-67
2023/04/06 12:19:19;;;;;;;1.48;0.60;;;18.70;71.50;;;;;;5032393;28;20401;-67
2023/04/06 12:21:44;;;;;;;2.70;0.80;;;18.70;71.50;;;;;;5032511;28;20464;-67
2023/04/06 12:24:10;;;;;;;2.40;0.47;;;18.70;71.40;;;;;;5032343;28;20113;-68
2023/04/06 12:26:37;;;;;;;1.98;0.88;;;18.70;71.40;;;;;;5064381;28;20055;-67
2023/04/06 12:29:08;;;;;;;2.08;0.70;;;18.70;71.40;;;;;;5032287;28;20036;-67
2023/04/06 12:31:40;;;;;;;1.25;0.60;;;18.70;71.40;;;;;;5062735;28;20521;-68
2023/04/06 12:34:06;;;;;;;1.80;0.52;;;18.70;71.40;;;;;;5032374;28;20105;-68
2023/04/06 12:36:32;;;;;;;2.08;0.82;;;18.70;71.40;;;;;;5064409;28;20026;-67
2023/04/06 12:38:58;;;;;;;1.13;0.70;;;18.70;71.40;;;;;;5032399;28;20037;-67
2023/04/06 12:41:24;;;;;;;1.80;0.65;;;18.80;71.30;;;;;;5032001;28;20017;-67
2023/04/06 12:43:50;;;;;;;1.95;0.50;;;18.70;71.40;;;;;;5032124;28;20032;-67